Time;durP1;ratioP1;P1;durP2;ratioP2;P2;SDS_P1;SDS_P2;PMS_P1;PMS_P2;Temp;Humidity;BMP_temperature;BMP_pressure;BME280_temperature;BME280_humidity;BME280_pressure;Samples;Min_cycle;Max_cycle;Signal;HPM_P1;HPM_P2
2023/10/24 00:01:08;;;;;;;13.38;7.82;;;12.40;99.90;;;;;;6195505;23;20136;-81
2023/10/24 00:03:35;;;;;;;22.35;9.93;;;12.50;99.90;;;;;;6184046;23;20179;-79
2023/10/24 00:06:03;;;;;;;14.23;7.53;;;12.30;99.90;;;;;;6213472;23;20021;-80
2023/10/24 00:08:31;;;;;;;13.68;7.55;;;12.20;99.90;;;;;;6198820;23;20338;-79
2023/10/24 00:11:04;;;;;;;15.55;8.45;;;12.20;99.90;;;;;;6191102;23;20414;-79
2023/10/24 00:13:32;;;;;;;13.70;8.18;;;12.20;99.90;;;;;;6193328;23;20020;-78
2023/10/24 00:16:01;;;;;;;14.95;7.70;;;12.20;99.90;;;;;;6194395;23;20017;-80
2023/10/24 00:18:29;;;;;;;14.48;7.68;;;12.20;99.90;;;;;;6186377;23;20028;-79
2023/10/24 00:20:57;;;;;;;15.43;8.35;;;12.10;99.90;;;;;;6187761;23;20052;-80
2023/10/24 00:23:25;;;;;;;14.25;8.63;;;12.10;99.90;;;;;;6189325;23;20103;-80
2023/10/24 00:25:53;;;;;;;15.52;8.10;;;12.00;99.90;;;;;;6191231;23;20032;-79
2023/10/24 00:28:21;;;;;;;15.68;8.10;;;11.90;99.90;;;;;;6192352;23;20023;-80
2023/10/24 00:30:49;;;;;;;12.10;7.07;;;12.00;99.90;;;;;;6182280;23;20469;-78
2023/10/24 00:33:16;;;;;;;17.42;8.90;;;12.10;99.90;;;;;;6154990;23;20029;-79
2023/10/24 00:35:44;;;;;;;12.48;7.50;;;12.10;99.90;;;;;;6154939;23;20027;-81
2023/10/24 00:38:11;;;;;;;18.02;7.35;;;12.20;99.90;;;;;;6154619;23;20028;-81
2023/10/24 00:40:40;;;;;;;15.80;8.18;;;12.10;99.90;;;;;;6155402;23;20024;-80
2023/10/24 00:43:09;;;;;;;21.35;8.80;;;12.00;99.90;;;;;;6180785;23;20780;-80
2023/10/24 00:45:38;;;;;;;15.35;7.20;;;12.00;99.90;;;;;;6182913;23;20025;-81
2023/10/24 00:48:07;;;;;;;13.93;8.07;;;12.00;99.90;;;;;;6155185;23;20033;-82
2023/10/24 00:50:35;;;;;;;14.05;7.75;;;11.90;99.90;;;;;;6187276;23;20021;-80
2023/10/24 00:53:03;;;;;;;15.13;7.90;;;12.00;99.90;;;;;;6155186;23;20021;-81
2023/10/24 00:55:31;;;;;;;16.20;8.05;;;11.90;99.90;;;;;;6190919;23;20024;-82
2023/10/24 00:58:01;;;;;;;15.30;7.88;;;11.90;99.90;;;;;;6180786;23;20453;-82
2023/10/24 01:00:30;;;;;;;12.75;7.32;;;12.00;99.90;;;;;;6182595;23;20020;-81
2023/10/24 01:03:01;;;;;;;16.80;8.10;;;12.00;99.90;;;;;;6185469;23;20025;-82
2023/10/24 01:05:29;;;;;;;18.30;7.65;;;12.00;99.90;;;;;;6154789;23;20025;-82
2023/10/24 01:07:56;;;;;;;13.73;6.38;;;12.00;99.90;;;;;;6189854;23;20021;-82
2023/10/24 01:10:24;;;;;;;13.18;6.97;;;12.00;99.90;;;;;;6155966;23;20024;-81
2023/10/24 01:12:52;;;;;;;12.27;6.38;;;12.00;99.90;;;;;;6182280;23;20107;-80
2023/10/24 01:15:19;;;;;;;15.40;6.82;;;12.00;99.90;;;;;;6184055;23;20029;-82
2023/10/24 01:17:51;;;;;;;13.77;7.13;;;11.90;99.90;;;;;;6185826;23;20114;-84
2023/10/24 01:20:20;;;;;;;14.68;7.57;;;11.90;99.90;;;;;;6187753;23;20051;-79
2023/10/24 01:22:49;;;;;;;12.40;6.63;;;11.90;99.90;;;;;;6156452;23;20130;-83
2023/10/24 01:25:18;;;;;;;12.75;7.20;;;11.90;99.90;;;;;;6196621;23;20013;-80
2023/10/24 01:27:51;;;;;;;15.50;7.38;;;11.80;99.90;;;;;;6186014;23;20025;-81
2023/10/24 01:30:20;;;;;;;13.38;7.47;;;11.90;99.90;;;;;;6184404;23;20524;-81
2023/10/24 01:32:47;;;;;;;16.95;9.10;;;11.80;99.90;;;;;;6154949;23;20072;-82
2023/10/24 01:35:15;;;;;;;12.90;7.35;;;11.80;99.90;;;;;;6188748;23;20458;-82
2023/10/24 01:37:43;;;;;;;13.13;6.97;;;11.80;99.90;;;;;;6180060;23;20060;-83
2023/10/24 01:40:13;;;;;;;10.48;5.93;;;11.80;99.90;;;;;;6180398;23;20017;-82
2023/10/24 01:42:40;;;;;;;15.38;6.60;;;11.80;99.90;;;;;;6183569;23;20108;-83
2023/10/24 01:45:08;;;;;;;12.27;5.75;;;11.80;99.90;;;;;;6156646;23;20049;-80
2023/10/24 01:47:36;;;;;;;11.32;5.82;;;11.70;99.90;;;;;;6188061;23;20032;-80
2023/10/24 01:50:04;;;;;;;12.10;6.55;;;11.70;99.90;;;;;;6154977;23;20017;-81
2023/10/24 01:52:32;;;;;;;11.90;6.38;;;11.70;99.90;;;;;;6158698;23;20040;-80
2023/10/24 01:55:00;;;;;;;10.80;4.97;;;11.70;99.90;;;;;;6198150;23;20032;-84
2023/10/24 01:57:29;;;;;;;12.02;6.82;;;11.60;99.90;;;;;;6165786;23;20028;-81
2023/10/24 01:59:56;;;;;;;11.77;6.18;;;11.60;99.90;;;;;;6159202;23;20032;-82
2023/10/24 02:02:26;;;;;;;13.48;6.22;;;11.60;99.90;;;;;;6157537;23;20028;-82
2023/10/24 02:04:53;;;;;;;9.02;5.57;;;11.60;99.90;;;;;;6197687;23;20032;-80
2023/10/24 02:07:21;;;;;;;11.13;6.03;;;11.60;99.90;;;;;;6199910;23;20009;-83
2023/10/24 02:09:48;;;;;;;11.57;5.70;;;11.60;99.90;;;;;;6170497;23;20017;-80
2023/10/24 02:12:16;;;;;;;13.40;7.07;;;11.70;99.90;;;;;;6207960;23;20067;-82
2023/10/24 02:14:44;;;;;;;11.18;5.72;;;11.70;99.90;;;;;;6207931;23;20040;-80
2023/10/24 02:17:12;;;;;;;11.38;5.43;;;11.60;99.90;;;;;;6180202;23;20015;-80
2023/10/24 02:19:40;;;;;;;9.55;4.80;;;11.60;99.90;;;;;;6179724;23;20019;-81
2023/10/24 02:22:07;;;;;;;11.70;4.75;;;11.60;99.90;;;;;;6207380;23;20020;-80
2023/10/24 02:24:34;;;;;;;10.60;4.60;;;11.50;99.90;;;;;;6183116;23;20229;-81
2023/10/24 02:27:02;;;;;;;11.50;6.05;;;11.60;99.90;;;;;;6185404;23;20022;-83
2023/10/24 02:29:33;;;;;;;10.93;6.00;;;11.60;99.90;;;;;;6153995;23;20100;-82
2023/10/24 02:32:03;;;;;;;13.40;5.95;;;11.60;99.90;;;;;;6188387;23;20025;-83
2023/10/24 02:34:31;;;;;;;10.63;5.32;;;11.60;99.90;;;;;;6190863;23;20076;-82
2023/10/24 02:36:58;;;;;;;12.50;6.32;;;11.60;99.90;;;;;;6190944;23;20087;-81
2023/10/24 02:39:26;;;;;;;11.82;6.47;;;11.60;99.90;;;;;;6182049;23;20021;-79
2023/10/24 02:41:53;;;;;;;11.02;4.85;;;11.50;99.90;;;;;;6167768;23;20040;-79
2023/10/24 02:44:20;;;;;;;12.90;5.65;;;11.50;99.90;;;;;;6168035;23;20063;-79
2023/10/24 02:46:48;;;;;;;12.95;5.20;;;11.40;99.90;;;;;;6178882;23;20031;-79
2023/10/24 02:49:16;;;;;;;9.75;5.10;;;11.50;99.90;;;;;;6192616;23;20023;-81
2023/10/24 02:51:44;;;;;;;10.55;4.25;;;11.50;99.90;;;;;;6181887;23;20024;-80
2023/10/24 02:54:11;;;;;;;13.73;4.75;;;11.50;99.90;;;;;;6154672;23;20025;-78
2023/10/24 02:56:39;;;;;;;8.77;4.50;;;11.40;99.90;;;;;;6186373;23;20025;-81
2023/10/24 02:59:07;;;;;;;11.90;4.40;;;11.40;99.90;;;;;;6153653;23;20508;-78
2023/10/24 03:01:34;;;;;;;11.02;4.80;;;11.40;99.90;;;;;;6190192;23;20013;-77
2023/10/24 03:04:01;;;;;;;12.65;5.40;;;11.40;99.90;;;;;;6154591;23;20024;-78
2023/10/24 03:06:30;;;;;;;12.23;5.35;;;11.40;99.90;;;;;;6154152;23;20021;-78
2023/10/24 03:08:58;;;;;;;12.90;4.88;;;11.40;99.90;;;;;;6183352;23;20026;-78
2023/10/24 03:11:26;;;;;;;11.75;5.05;;;11.30;99.90;;;;;;6153704;23;20044;-78
2023/10/24 03:13:54;;;;;;;16.60;6.35;;;11.30;99.90;;;;;;6153430;23;20401;-80
2023/10/24 03:16:22;;;;;;;12.65;6.60;;;11.20;99.90;;;;;;6191278;23;20454;-79
2023/10/24 03:18:51;;;;;;;12.82;5.15;;;11.30;99.90;;;;;;6180339;23;20025;-79
2023/10/24 03:21:20;;;;;;;11.70;5.53;;;11.40;99.90;;;;;;6153376;23;20135;-80
2023/10/24 03:23:49;;;;;;;16.98;6.85;;;11.40;99.90;;;;;;6185346;23;20025;-78
2023/10/24 03:26:16;;;;;;;11.93;6.00;;;11.30;99.90;;;;;;6186964;23;20025;-78
2023/10/24 03:28:44;;;;;;;10.98;6.00;;;11.30;99.90;;;;;;6188809;23;20017;-78
2023/10/24 03:31:12;;;;;;;11.48;6.28;;;11.30;99.90;;;;;;6190922;23;20077;-78
2023/10/24 03:33:40;;;;;;;12.35;7.60;;;11.30;99.90;;;;;;6185565;23;20032;-77
2023/10/24 03:36:13;;;;;;;12.55;5.50;;;11.10;99.90;;;;;;6187480;23;20480;-79
2023/10/24 03:38:41;;;;;;;11.75;4.88;;;11.00;99.90;;;;;;6184976;23;20414;-81
2023/10/24 03:41:09;;;;;;;11.40;5.55;;;11.00;99.90;;;;;;6187282;23;20032;-78
2023/10/24 03:43:37;;;;;;;15.45;5.78;;;11.00;99.90;;;;;;6188667;23;20072;-79
2023/10/24 03:46:07;;;;;;;11.63;5.07;;;11.10;99.90;;;;;;6161084;23;20013;-79
2023/10/24 03:48:35;;;;;;;10.88;4.57;;;11.10;99.90;;;;;;6151377;23;20029;-79
2023/10/24 03:51:02;;;;;;;7.97;3.97;;;11.00;99.90;;;;;;6155069;23;20032;-78
2023/10/24 03:53:30;;;;;;;9.90;3.97;;;10.90;99.90;;;;;;6156568;23;20026;-79
2023/10/24 03:55:58;;;;;;;11.98;4.43;;;10.90;99.90;;;;;;6158983;23;20068;-79
2023/10/24 03:58:28;;;;;;;10.77;5.20;;;10.90;99.90;;;;;;6160879;23;20092;-79
2023/10/24 04:00:55;;;;;;;9.07;4.65;;;10.90;99.90;;;;;;6151126;23;20036;-78
2023/10/24 04:03:23;;;;;;;8.95;4.40;;;11.00;99.90;;;;;;6150962;23;20059;-79
2023/10/24 04:05:50;;;;;;;8.60;4.88;;;11.00;99.90;;;;;;6157200;23;20084;-79
2023/10/24 04:08:18;;;;;;;16.80;9.27;;;11.10;99.90;;;;;;6158562;23;20033;-79
2023/10/24 04:10:45;;;;;;;41.83;24.45;;;11.10;99.90;;;;;;6167857;23;20242;-79
2023/10/24 04:13:12;;;;;;;8.93;4.78;;;11.10;99.90;;;;;;6127985;23;20451;-79
2023/10/24 04:15:41;;;;;;;9.18;3.47;;;11.10;99.90;;;;;;6126891;23;20017;-80
2023/10/24 04:18:09;;;;;;;7.03;3.95;;;11.20;99.90;;;;;;6155172;23;20028;-79
2023/10/24 04:20:36;;;;;;;12.15;4.55;;;11.20;99.90;;;;;;6156809;23;20040;-81
2023/10/24 04:23:04;;;;;;;10.00;4.63;;;11.20;99.90;;;;;;6159432;23;20022;-78
2023/10/24 04:25:31;;;;;;;11.60;5.40;;;11.20;99.90;;;;;;6161177;23;20056;-79
2023/10/24 04:27:59;;;;;;;14.10;5.85;;;11.20;99.90;;;;;;6162807;23;20041;-78
2023/10/24 04:30:28;;;;;;;21.92;8.15;;;11.10;99.90;;;;;;6170624;23;20053;-79
2023/10/24 04:32:57;;;;;;;13.05;6.78;;;11.10;99.90;;;;;;6138207;23;20031;-78
2023/10/24 04:35:24;;;;;;;12.55;6.25;;;11.10;99.90;;;;;;6158652;23;20056;-78
2023/10/24 04:37:51;;;;;;;15.50;6.95;;;11.00;99.90;;;;;;6170073;23;20041;-78
2023/10/24 04:40:20;;;;;;;19.30;8.15;;;11.10;99.90;;;;;;6173483;23;20014;-80
2023/10/24 04:42:47;;;;;;;14.38;6.63;;;11.10;99.90;;;;;;6200054;23;20025;-78
2023/10/24 04:45:15;;;;;;;13.50;6.88;;;11.20;99.90;;;;;;6185129;23;20032;-78
2023/10/24 04:47:42;;;;;;;18.52;7.22;;;11.30;99.90;;;;;;6187999;23;20025;-78
2023/10/24 04:50:13;;;;;;;14.52;6.90;;;11.30;99.90;;;;;;6163923;23;20048;-81
2023/10/24 04:52:40;;;;;;;15.18;7.10;;;11.20;99.90;;;;;;6206731;23;20009;-79
2023/10/24 04:55:08;;;;;;;20.88;9.55;;;11.20;99.90;;;;;;6209936;23;20013;-79
2023/10/24 04:57:36;;;;;;;12.90;6.63;;;11.20;99.90;;;;;;6200709;23;20028;-78
2023/10/24 05:00:06;;;;;;;17.13;8.52;;;11.20;99.90;;;;;;6201334;23;20036;-81
2023/10/24 05:02:33;;;;;;;19.15;9.35;;;11.20;99.90;;;;;;6171346;23;20032;-79
2023/10/24 05:05:01;;;;;;;20.17;11.35;;;11.20;99.90;;;;;;6200682;23;20021;-79
2023/10/24 05:07:29;;;;;;;20.23;10.27;;;11.10;99.90;;;;;;6204923;23;20021;-81
2023/10/24 05:09:57;;;;;;;18.52;10.18;;;11.20;99.90;;;;;;6193845;23;20099;-79
2023/10/24 05:12:24;;;;;;;20.98;11.25;;;11.20;99.90;;;;;;6201919;23;20032;-78
2023/10/24 05:14:53;;;;;;;23.13;12.73;;;11.20;99.90;;;;;;6204445;23;20413;-77
2023/10/24 05:17:20;;;;;;;27.50;14.00;;;11.20;99.90;;;;;;6206297;23;20029;-78
2023/10/24 05:19:48;;;;;;;23.45;15.65;;;11.20;99.90;;;;;;6207214;23;20021;-78
2023/10/24 05:22:15;;;;;;;32.10;19.88;;;11.30;99.90;;;;;;6200161;23;20055;-80
2023/10/24 05:24:44;;;;;;;35.65;17.50;;;11.30;99.90;;;;;;6185353;23;20017;-80
2023/10/24 05:27:12;;;;;;;27.30;16.13;;;11.40;99.90;;;;;;6201520;23;20029;-81
2023/10/24 05:29:41;;;;;;;18.95;12.70;;;11.50;99.90;;;;;;6201653;23;20036;-78
2023/10/24 05:32:08;;;;;;;25.27;14.38;;;11.40;99.90;;;;;;6189876;23;20423;-81
2023/10/24 05:34:36;;;;;;;19.23;11.90;;;11.40;99.90;;;;;;6190594;23;20092;-78
2023/10/24 05:37:04;;;;;;;24.92;13.40;;;11.40;99.90;;;;;;6193124;23;20032;-78
2023/10/24 05:39:31;;;;;;;24.27;14.32;;;11.50;99.90;;;;;;6182792;23;20032;-79
2023/10/24 05:42:00;;;;;;;27.02;14.90;;;11.60;99.90;;;;;;6185772;23;20035;-81
2023/10/24 05:44:27;;;;;;;31.75;18.10;;;11.70;99.90;;;;;;6193626;23;20040;-79
2023/10/24 05:46:55;;;;;;;37.10;20.42;;;11.80;99.90;;;;;;6155227;23;20029;-81
2023/10/24 05:49:23;;;;;;;31.58;19.42;;;11.90;99.90;;;;;;6191936;23;20048;-80
2023/10/24 05:51:52;;;;;;;35.58;17.52;;;11.90;99.90;;;;;;6181518;23;20129;-78
2023/10/24 05:54:19;;;;;;;31.65;18.98;;;12.00;99.90;;;;;;6183704;23;20025;-80
2023/10/24 05:56:46;;;;;;;28.65;14.45;;;12.10;99.90;;;;;;6185886;23;20338;-79
2023/10/24 05:59:17;;;;;;;24.08;12.02;;;12.20;99.90;;;;;;6188194;23;20028;-83
2023/10/24 06:01:44;;;;;;;15.50;8.27;;;12.30;99.90;;;;;;6190427;23;20035;-83
2023/10/24 06:04:12;;;;;;;17.92;7.45;;;12.40;99.90;;;;;;6192158;23;20016;-80
2023/10/24 06:06:39;;;;;;;19.15;9.02;;;12.50;99.90;;;;;;6183149;23;20409;-80
2023/10/24 06:09:07;;;;;;;17.55;8.20;;;12.50;99.90;;;;;;6185593;23;20514;-80
2023/10/24 06:11:34;;;;;;;20.73;9.43;;;12.40;99.90;;;;;;6185327;23;20024;-82
2023/10/24 06:14:00;;;;;;;17.92;9.23;;;12.30;99.90;;;;;;6187628;23;20087;-81
2023/10/24 06:16:29;;;;;;;13.80;8.15;;;12.50;99.90;;;;;;6153424;23;20097;-81
2023/10/24 06:18:57;;;;;;;22.42;12.07;;;12.60;99.90;;;;;;6179985;23;20047;-81
2023/10/24 06:21:25;;;;;;;24.67;13.60;;;12.80;99.90;;;;;;6196825;23;20044;-79
2023/10/24 06:23:53;;;;;;;20.50;12.23;;;12.80;99.90;;;;;;6193722;23;20462;-80
2023/10/24 06:26:20;;;;;;;23.83;11.90;;;12.90;99.90;;;;;;6189522;23;20026;-79
2023/10/24 06:28:48;;;;;;;22.60;12.95;;;13.00;99.90;;;;;;6189751;23;20029;-79
2023/10/24 06:31:15;;;;;;;24.45;11.93;;;13.10;99.90;;;;;;6192393;23;20017;-80
2023/10/24 06:33:44;;;;;;;22.98;11.45;;;13.20;99.90;;;;;;6182084;23;20085;-79
2023/10/24 06:36:11;;;;;;;20.98;11.48;;;13.40;99.90;;;;;;6154305;23;20028;-80
2023/10/24 06:38:38;;;;;;;26.02;15.02;;;13.40;99.90;;;;;;6185378;23;20052;-79
2023/10/24 06:41:08;;;;;;;20.63;11.65;;;13.50;99.90;;;;;;6188462;23;20032;-78
2023/10/24 06:43:36;;;;;;;19.33;11.80;;;13.50;1.00;;;;;;6190545;23;20033;-78
2023/10/24 06:46:04;;;;;;;25.48;14.73;;;13.60;1.00;;;;;;6192444;23;20013;-80
2023/10/24 06:48:32;;;;;;;19.38;9.38;;;13.90;1.00;;;;;;6182693;23;20106;-79
2023/10/24 06:51:00;;;;;;;18.40;9.00;;;14.00;99.90;;;;;;6184793;23;20358;-79
2023/10/24 06:53:29;;;;;;;16.80;8.35;;;14.10;1.00;;;;;;6186627;23;20033;-80
2023/10/24 06:56:21;;;;;;;16.23;8.05;;;14.20;1.00;;;;;;6188894;23;20116;-86
2023/10/24 06:58:48;;;;;;;20.20;9.45;;;14.30;99.90;;;;;;6188524;23;20017;-79
2023/10/24 07:01:15;;;;;;;22.15;10.23;;;14.30;99.90;;;;;;6190965;23;20020;-77
2023/10/24 07:03:43;;;;;;;19.50;9.30;;;14.40;27.50;;;;;;6180922;23;20021;-78
2023/10/24 07:06:11;;;;;;;57.33;17.55;;;14.50;1.00;;;;;;6183299;23;20029;-77
2023/10/24 07:08:40;;;;;;;18.73;9.15;;;14.60;32.80;;;;;;6185167;23;20035;-76
2023/10/24 07:11:07;;;;;;;21.38;9.32;;;14.70;99.90;;;;;;6187093;23;20031;-77
2023/10/24 07:13:37;;;;;;;21.40;8.52;;;14.70;99.90;;;;;;6190120;23;20072;-77
2023/10/24 07:16:13;;;;;;;19.48;9.27;;;14.80;1.00;;;;;;6190683;23;20024;-77
2023/10/24 07:18:40;;;;;;;38.30;12.63;;;14.90;1.00;;;;;;6153358;23;20032;-79
2023/10/24 07:21:08;;;;;;;19.27;10.05;;;15.10;99.90;;;;;;6183668;23;20405;-80
2023/10/24 07:23:36;;;;;;;23.27;9.52;;;15.30;99.90;;;;;;6185844;23;20020;-78
2023/10/24 07:26:04;;;;;;;23.50;10.48;;;15.60;1.00;;;;;;6187722;23;20079;-80
2023/10/24 07:28:31;;;;;;;22.52;10.02;;;15.90;1.00;;;;;;6190012;23;20017;-78
2023/10/24 07:30:58;;;;;;;22.52;9.77;;;16.10;1.00;;;;;;6190522;23;20465;-77
2023/10/24 07:33:26;;;;;;;20.63;10.30;;;16.30;1.00;;;;;;6182034;23;20021;-80
2023/10/24 07:35:53;;;;;;;23.40;12.45;;;16.50;99.90;;;;;;6184877;23;20288;-78
2023/10/24 07:38:21;;;;;;;23.88;11.82;;;16.50;22.00;;;;;;6188313;23;20037;-78
2023/10/24 07:40:49;;;;;;;26.40;13.07;;;16.60;1.00;;;;;;6155778;23;20084;-80
2023/10/24 07:43:17;;;;;;;24.33;11.43;;;16.70;1.00;;;;;;6192570;23;20033;-79
2023/10/24 07:45:50;;;;;;;23.40;13.23;;;16.70;1.00;;;;;;6182694;23;20036;-80
2023/10/24 07:48:19;;;;;;;31.98;18.65;;;16.70;1.00;;;;;;6183115;23;20095;-80
2023/10/24 07:50:50;;;;;;;30.65;18.55;;;16.70;1.00;;;;;;6186892;23;20045;-78
2023/10/24 07:53:19;;;;;;;27.73;15.45;;;16.80;1.00;;;;;;6188732;23;20033;-80
2023/10/24 07:55:46;;;;;;;26.27;13.23;;;16.90;1.00;;;;;;6190889;23;20023;-79
2023/10/24 07:58:16;;;;;;;26.08;12.48;;;17.10;1.00;;;;;;6192121;23;20622;-80
2023/10/24 08:00:44;;;;;;;25.23;11.18;;;17.30;1.00;;;;;;6183599;23;20055;-80
2023/10/24 08:03:13;;;;;;;24.05;11.20;;;17.50;1.00;;;;;;6184627;23;20032;-77
2023/10/24 08:05:43;;;;;;;24.17;12.10;;;17.70;99.90;;;;;;6187202;23;20029;-78
2023/10/24 08:08:11;;;;;;;22.98;12.35;;;17.80;99.90;;;;;;6189078;23;20029;-79
2023/10/24 08:10:38;;;;;;;30.90;12.57;;;18.10;3.50;;;;;;6193507;23;20028;-82
2023/10/24 08:13:05;;;;;;;21.55;10.27;;;18.30;1.00;;;;;;6193657;23;20010;-79
2023/10/24 08:15:35;;;;;;;24.75;10.32;;;18.40;1.00;;;;;;6184641;23;20025;-80
2023/10/24 08:18:02;;;;;;;25.52;10.48;;;18.50;1.00;;;;;;6186080;23;20049;-80
2023/10/24 08:20:30;;;;;;;21.63;10.23;;;18.50;1.00;;;;;;6187414;23;20533;-79
2023/10/24 08:22:57;;;;;;;26.48;10.68;;;18.50;1.00;;;;;;6189602;23;20025;-79
2023/10/24 08:25:24;;;;;;;36.90;10.60;;;18.40;1.00;;;;;;6193004;23;20017;-82
2023/10/24 08:27:51;;;;;;;29.65;12.30;;;18.40;1.00;;;;;;6182865;23;20028;-80
2023/10/24 08:30:19;;;;;;;24.42;11.95;;;18.40;1.00;;;;;;6184405;23;20025;-79
2023/10/24 08:32:48;;;;;;;26.23;12.68;;;18.30;1.00;;;;;;6189168;23;20072;-80
2023/10/24 08:35:15;;;;;;;31.08;13.02;;;18.50;1.00;;;;;;6193395;23;20075;-81
2023/10/24 08:37:42;;;;;;;31.65;14.70;;;18.60;1.00;;;;;;6192029;23;20028;-79
2023/10/24 08:40:10;;;;;;;33.45;15.48;;;18.80;1.00;;;;;;6191763;23;20016;-82
2023/10/24 08:42:38;;;;;;;33.90;15.52;;;18.80;99.90;;;;;;6182452;23;20021;-78
2023/10/24 08:45:07;;;;;;;41.72;16.85;;;18.90;1.00;;;;;;6185466;23;20454;-78
2023/10/24 08:47:36;;;;;;;41.55;17.40;;;18.90;1.00;;;;;;6186606;23;20029;-80
2023/10/24 08:50:06;;;;;;;35.60;17.42;;;19.10;1.00;;;;;;6188687;23;20021;-80
2023/10/24 08:52:34;;;;;;;32.85;16.67;;;19.10;1.00;;;;;;6191495;23;20028;-80
2023/10/24 08:55:04;;;;;;;42.20;19.08;;;19.20;1.00;;;;;;6193296;23;20043;-79
2023/10/24 08:57:35;;;;;;;40.47;19.85;;;19.30;1.00;;;;;;6155389;23;20516;-79
2023/10/24 09:00:03;;;;;;;39.67;20.58;;;19.30;99.90;;;;;;6186299;23;20036;-81
2023/10/24 09:02:31;;;;;;;47.25;21.98;;;19.40;99.90;;;;;;6187928;23;20039;-80
2023/10/24 09:05:00;;;;;;;45.33;21.65;;;19.50;99.90;;;;;;6191400;23;20039;-79
2023/10/24 09:07:29;;;;;;;48.35;22.85;;;19.80;99.90;;;;;;6193335;23;20013;-79
2023/10/24 09:09:56;;;;;;;46.40;22.02;;;20.00;99.90;;;;;;6189383;23;20025;-80
2023/10/24 09:12:24;;;;;;;50.67;25.30;;;20.00;99.90;;;;;;6231808;23;20024;-78
2023/10/24 09:14:51;;;;;;;48.40;24.55;;;20.10;99.90;;;;;;6238352;22;20048;-79
2023/10/24 09:17:18;;;;;;;57.25;30.45;;;20.10;99.90;;;;;;6239016;23;20108;-80
2023/10/24 09:19:46;;;;;;;48.83;27.25;;;20.20;99.90;;;;;;6223211;23;20017;-80
2023/10/24 09:22:16;;;;;;;44.95;23.50;;;20.20;1.00;;;;;;6223259;23;20009;-81
2023/10/24 09:24:46;;;;;;;43.45;22.98;;;20.30;99.90;;;;;;6213539;23;20040;-80
2023/10/24 09:27:15;;;;;;;45.95;21.92;;;20.30;99.90;;;;;;6217560;23;20327;-79
2023/10/24 09:29:42;;;;;;;43.20;20.25;;;20.40;99.90;;;;;;6219475;23;20094;-81
2023/10/24 09:32:16;;;;;;;39.85;17.15;;;20.50;99.90;;;;;;6220224;23;20024;-81
2023/10/24 09:34:43;;;;;;;36.72;17.83;;;20.60;99.90;;;;;;6221900;23;20092;-80
2023/10/24 09:37:13;;;;;;;47.97;20.50;;;20.70;99.90;;;;;;6222534;23;20012;-79
2023/10/24 09:39:55;;;;;;;34.63;17.35;;;20.90;99.90;;;;;;6212104;23;20021;-79
2023/10/24 09:42:25;;;;;;;39.83;19.17;;;21.10;99.90;;;;;;6192263;23;20037;-79
2023/10/24 09:44:55;;;;;;;36.40;14.45;;;21.20;99.90;;;;;;6185809;23;20431;-80
2023/10/24 09:47:23;;;;;;;30.80;13.45;;;21.30;26.40;;;;;;6180917;23;20453;-80
2023/10/24 09:49:51;;;;;;;33.70;11.32;;;21.50;1.00;;;;;;6179491;23;20031;-79
2023/10/24 09:52:22;;;;;;;36.75;9.88;;;21.60;1.00;;;;;;6191947;23;20084;-81
2023/10/24 09:54:51;;;;;;;32.08;10.15;;;21.80;99.90;;;;;;6182244;23;20036;-80
2023/10/24 09:57:22;;;;;;;30.70;9.85;;;22.00;99.90;;;;;;6184666;23;20049;-81
2023/10/24 09:59:52;;;;;;;29.58;7.65;;;22.10;99.90;;;;;;6185533;23;20364;-82
2023/10/24 10:02:21;;;;;;;27.95;6.80;;;22.20;99.90;;;;;;6188669;23;20457;-79
2023/10/24 10:04:50;;;;;;;24.30;7.82;;;22.30;99.90;;;;;;6158652;23;20017;-80
2023/10/24 10:07:20;;;;;;;26.83;7.00;;;22.50;99.90;;;;;;6196252;23;20338;-82
2023/10/24 10:09:48;;;;;;;30.80;8.05;;;22.60;99.90;;;;;;6183615;23;20445;-80
2023/10/24 10:12:17;;;;;;;32.53;7.75;;;22.60;99.90;;;;;;6187062;23;20453;-80
2023/10/24 10:15:03;;;;;;;31.00;6.50;;;22.70;99.90;;;;;;6159017;23;20032;-79
2023/10/24 10:17:34;;;;;;;;;;;22.80;99.90;;;;;;6163939;23;20061;-81
2023/10/24 10:20:20;;;;;;;32.70;6.60;;;22.90;1.00;;;;;;6198285;23;19926;-81
2023/10/24 10:22:59;;;;;;;32.90;7.18;;;23.00;1.00;;;;;;6149020;23;20025;-82
2023/10/24 10:25:51;;;;;;;28.65;5.60;;;23.10;1.00;;;;;;6193333;23;20013;-81
2023/10/24 10:28:30;;;;;;;29.85;6.72;;;23.20;1.00;;;;;;6180733;23;20033;-81
2023/10/24 10:31:10;;;;;;;26.02;6.72;;;23.20;99.90;;;;;;6180327;23;20102;-82
2023/10/24 10:33:38;;;;;;;26.23;6.30;;;23.30;1.00;;;;;;6183127;23;20021;-81
2023/10/24 10:36:09;;;;;;;29.50;7.75;;;23.30;1.00;;;;;;6184796;23;20422;-83
2023/10/24 10:38:39;;;;;;;25.05;7.28;;;23.40;1.00;;;;;;6190118;23;20100;-82
2023/10/24 10:41:36;;;;;;;37.13;7.45;;;23.40;46.10;;;;;;6188949;23;20025;-81
2023/10/24 10:44:24;;;;;;;29.20;5.63;;;23.60;99.90;;;;;;6176376;23;20449;-83
2023/10/24 10:47:02;;;;;;;25.38;5.70;;;23.70;1.00;;;;;;6190496;23;20036;-82
2023/10/24 10:49:39;;;;;;;32.67;6.45;;;23.70;1.00;;;;;;6196945;23;20017;-83
2023/10/24 10:52:41;;;;;;;27.05;6.55;;;23.70;1.00;;;;;;6159135;23;20063;-77
2023/10/24 10:55:39;;;;;;;29.73;6.88;;;23.90;1.00;;;;;;6158113;23;20017;-84
2023/10/24 10:58:23;;;;;;;79.47;10.93;;;24.00;1.00;;;;;;6182449;23;20017;-77
2023/10/24 11:01:02;;;;;;;29.88;8.82;;;24.10;1.00;;;;;;6179530;23;20080;-77
2023/10/24 11:03:40;;;;;;;39.50;12.60;;;24.30;99.90;;;;;;6154441;23;20021;-78
2023/10/24 11:06:14;;;;;;;39.13;10.95;;;24.30;1.00;;;;;;6185519;23;20029;-78
2023/10/24 11:08:51;;;;;;;24.10;7.55;;;24.40;1.00;;;;;;6185769;23;20025;-78
2023/10/24 11:12:06;;;;;;;24.10;5.72;;;24.50;1.00;;;;;;6179381;23;20021;-78
2023/10/24 11:14:33;;;;;;;33.17;8.30;;;24.60;1.00;;;;;;6160181;23;20043;-82
2023/10/24 11:17:01;;;;;;;32.42;5.90;;;24.70;99.90;;;;;;6190356;23;20060;-82
2023/10/24 11:19:30;;;;;;;28.80;5.65;;;24.70;99.90;;;;;;6180988;23;20039;-78
2023/10/24 11:21:57;;;;;;;30.33;6.25;;;24.70;1.00;;;;;;6156104;23;20079;-81
2023/10/24 11:24:25;;;;;;;40.78;7.35;;;24.60;1.00;;;;;;6184210;23;20031;-79
2023/10/24 11:26:57;;;;;;;29.15;5.93;;;24.70;1.00;;;;;;6187359;23;20192;-78
2023/10/24 11:29:24;;;;;;;27.38;5.95;;;24.80;99.90;;;;;;6188342;23;20047;-80
2023/10/24 11:31:52;;;;;;;36.95;7.07;;;24.80;1.00;;;;;;6191392;23;20040;-81
2023/10/24 11:34:19;;;;;;;32.55;7.00;;;25.00;1.00;;;;;;6194550;23;20017;-78
2023/10/24 11:36:49;;;;;;;31.40;7.70;;;25.10;1.00;;;;;;6185644;23;20025;-83
2023/10/24 11:39:17;;;;;;;33.95;7.82;;;25.30;99.90;;;;;;6195134;23;20015;-81
2023/10/24 11:41:45;;;;;;;38.72;7.55;;;25.40;99.90;;;;;;6214963;23;20028;-81
2023/10/24 11:44:14;;;;;;;29.60;6.95;;;25.60;1.00;;;;;;6212651;23;20040;-80
2023/10/24 11:46:43;;;;;;;27.33;7.00;;;25.70;85.00;;;;;;6194817;23;20045;-79
2023/10/24 11:49:12;;;;;;;32.38;6.45;;;25.70;1.00;;;;;;6193241;23;20334;-81
2023/10/24 11:51:39;;;;;;;27.70;6.53;;;25.80;1.00;;;;;;6184307;23;20025;-79
2023/10/24 11:54:13;;;;;;;36.90;7.78;;;25.90;1.00;;;;;;6186399;23;20389;-80
2023/10/24 11:56:41;;;;;;;32.67;6.95;;;26.00;1.00;;;;;;6188001;23;20084;-80
2023/10/24 11:59:12;;;;;;;36.45;7.47;;;26.00;1.00;;;;;;6206588;23;20013;-80
2023/10/24 12:01:43;;;;;;;29.25;5.95;;;26.00;99.90;;;;;;6201869;23;20246;-79
2023/10/24 12:04:13;;;;;;;37.70;9.90;;;26.10;1.00;;;;;;6194021;23;20013;-81
2023/10/24 12:06:41;;;;;;;31.23;7.00;;;26.20;1.00;;;;;;6185824;23;20049;-78
2023/10/24 12:09:08;;;;;;;42.70;11.40;;;26.20;1.00;;;;;;6188967;23;20017;-80
2023/10/24 12:11:37;;;;;;;33.72;7.00;;;26.20;1.00;;;;;;6157893;23;20051;-80
2023/10/24 12:14:07;;;;;;;33.85;7.00;;;26.20;99.90;;;;;;6190999;23;20025;-80
2023/10/24 12:16:34;;;;;;;31.25;8.95;;;26.20;35.30;;;;;;6192876;23;20429;-80
2023/10/24 12:19:02;;;;;;;30.48;7.63;;;26.30;99.90;;;;;;6195002;23;20021;-79
2023/10/24 12:21:29;;;;;;;34.33;7.65;;;26.30;99.90;;;;;;6156282;23;20358;-79
2023/10/24 12:23:57;;;;;;;28.45;7.05;;;26.30;1.00;;;;;;6188480;23;20354;-79
2023/10/24 12:26:25;;;;;;;31.38;6.55;;;26.20;28.60;;;;;;6191048;23;20505;-80
2023/10/24 12:28:54;;;;;;;29.80;7.40;;;26.20;99.90;;;;;;6207716;23;20025;-79
2023/10/24 12:31:21;;;;;;;30.20;8.18;;;26.20;1.00;;;;;;6213363;23;20012;-79
2023/10/24 12:33:50;;;;;;;34.53;7.55;;;26.10;1.00;;;;;;6203385;23;20083;-80
2023/10/24 12:36:20;;;;;;;42.45;10.30;;;26.10;1.00;;;;;;6210085;23;20006;-81
2023/10/24 12:38:47;;;;;;;40.60;14.18;;;26.10;1.00;;;;;;6212194;23;20021;-82
2023/10/24 12:41:15;;;;;;;57.33;26.70;;;26.20;1.00;;;;;;6212382;23;20021;-77
2023/10/24 12:43:42;;;;;;;31.52;9.32;;;26.20;1.00;;;;;;6193594;23;20024;-82
2023/10/24 12:46:11;;;;;;;32.20;7.45;;;26.20;99.90;;;;;;6195929;23;20100;-79